Terschuur, Netherlands
Current Conditions -  °F | °C
As of 8:25 PM on Friday 21 Nov 2014 (Local Time) from EHDL Reporting Station
Haze Haze  
Wind Chill: 36°   Ceiling: 14000
Heat Index: 41°   Visibility: 6mi
Dew Point: 37°   Wind: 8mph
Humidity: 87%   Direction: 90°E
Pressure: 30.09"   Gusts: NA
Location:  52.17°N, 5.52°E
Report Text: EHDL 211925Z AUTO 09007KT 9000 BR OVC140 05/03 Q1019 BLU
Loading
Personal Weather Stations






























Interactive Weather Map New forecast layout! Learn more

10-Day Weather Forecast

Advertisements
Track Severe Weather on mobile